createdAt,value
2023-11-01T00:01:08.312Z,90934.13
2023-11-01T00:03:34.763Z,90933.03
2023-11-01T00:06:01.152Z,90938.47
2023-11-01T00:08:27.597Z,90939.13
2023-11-01T00:10:53.989Z,90940.25
2023-11-01T00:13:20.489Z,90930.81
2023-11-01T00:15:46.828Z,90935.28
2023-11-01T00:18:13.196Z,90931.38
2023-11-01T00:20:39.604Z,90926.84
2023-11-01T00:23:06.007Z,90923.59
2023-11-01T00:25:32.422Z,90917.97
2023-11-01T00:27:58.803Z,90925.72
2023-11-01T00:30:25.176Z,90923.72
2023-11-01T00:32:51.806Z,90922.34
2023-11-01T00:35:18.983Z,90916.59
2023-11-01T00:37:45.420Z,90912.31
2023-11-01T00:40:12.237Z,90914.63
2023-11-01T00:42:38.682Z,90914.91
2023-11-01T00:45:05.680Z,90912.69
2023-11-01T00:47:32.101Z,90906.50
2023-11-01T00:49:58.690Z,90903.09
2023-11-01T00:52:25.033Z,90886.69
2023-11-01T00:54:51.397Z,90887.47
2023-11-01T00:57:17.737Z,90885.69
2023-11-01T00:59:44.177Z,90888.34
2023-11-01T01:02:10.685Z,90882.31
2023-11-01T01:04:37.110Z,90879.63
2023-11-01T01:07:03.452Z,90888.50
2023-11-01T01:09:29.811Z,90884.72
2023-11-01T01:11:56.163Z,90879.75
2023-11-01T01:14:22.608Z,90869.56
2023-11-01T01:16:48.996Z,90867.19
2023-11-01T01:19:15.383Z,90869.44
2023-11-01T01:21:41.732Z,90859.31
2023-11-01T01:24:08.130Z,90855.50
2023-11-01T01:26:34.543Z,90859.53
2023-11-01T01:29:01.013Z,90864.28
2023-11-01T01:31:27.364Z,90857.28
2023-11-01T01:33:53.741Z,90856.09
2023-11-01T01:36:20.104Z,90859.66
2023-11-01T01:38:46.508Z,90856.19
2023-11-01T01:41:12.965Z,90854.84
2023-11-01T01:43:39.398Z,90847.22
2023-11-01T01:46:15.299Z,90839.63
2023-11-01T01:48:41.822Z,90835.97
2023-11-01T01:51:08.943Z,90828.66
2023-11-01T01:53:36.538Z,90824.06
2023-11-01T01:56:02.954Z,90820.53
2023-11-01T01:58:29.432Z,90831.38
2023-11-01T02:00:55.972Z,90838.03
2023-11-01T02:03:22.536Z,90830.19
2023-11-01T02:05:49.235Z,90829.28
2023-11-01T02:08:15.790Z,90821.13
2023-11-01T02:10:42.256Z,90825.66
2023-11-01T02:13:15.498Z,90817.03
2023-11-01T02:15:42.316Z,90814.66
2023-11-01T02:18:08.749Z,90815.53
2023-11-01T02:20:35.353Z,90804.81
2023-11-01T02:23:02.608Z,90803.56
2023-11-01T02:25:29.476Z,90801.63
2023-11-01T02:27:56.168Z,90804.78
2023-11-01T02:30:22.631Z,90804.91
2023-11-01T02:32:49.581Z,90797.47
2023-11-01T02:35:16.497Z,90794.16
2023-11-01T02:37:42.833Z,90789.28
2023-11-01T02:40:10.603Z,90793.69
2023-11-01T02:42:40.334Z,90791.00
2023-11-01T02:45:10.408Z,90787.38
2023-11-01T02:47:39.926Z,90784.06
2023-11-01T02:50:06.938Z,90786.81
2023-11-01T02:52:33.723Z,90781.06
2023-11-01T02:55:03.174Z,90777.06
2023-11-01T02:57:29.522Z,90770.94
2023-11-01T02:59:55.874Z,90765.44
2023-11-01T03:02:22.213Z,90770.22
2023-11-01T03:04:48.543Z,90771.19
2023-11-01T03:07:14.907Z,90763.66
2023-11-01T03:09:41.279Z,90760.69
2023-11-01T03:12:07.757Z,90766.16
2023-11-01T03:14:34.138Z,90771.03
2023-11-01T03:17:00.518Z,90756.31
2023-11-01T03:19:26.869Z,90761.53
2023-11-01T03:21:55.205Z,90759.91
2023-11-01T03:24:22.747Z,90760.47
2023-11-01T03:26:49.125Z,90759.69
2023-11-01T03:29:15.507Z,90756.88
2023-11-01T03:31:42.025Z,90751.28
2023-11-01T03:34:08.394Z,90746.03
2023-11-01T03:36:34.753Z,90745.53
2023-11-01T03:39:01.092Z,90741.59
2023-11-01T03:41:27.474Z,90734.53
2023-11-01T03:43:53.826Z,90736.53
2023-11-01T03:46:20.427Z,90737.63
2023-11-01T03:48:49.548Z,90734.50
2023-11-01T03:51:15.889Z,90726.41
2023-11-01T03:53:42.279Z,90733.53
2023-11-01T03:56:08.928Z,90737.34
2023-11-01T03:58:35.328Z,90729.69
2023-11-01T04:01:01.839Z,90728.97
2023-11-01T04:03:28.450Z,90725.66
2023-11-01T04:05:56.018Z,90716.66
2023-11-01T04:08:22.478Z,90715.53
2023-11-01T04:10:48.859Z,90710.00
2023-11-01T04:13:15.193Z,90706.88
2023-11-01T04:15:41.983Z,90713.44
2023-11-01T04:18:08.624Z,90708.91
2023-11-01T04:20:35.038Z,90705.03
2023-11-01T04:23:01.392Z,90701.22
2023-11-01T04:25:29.132Z,90696.31
2023-11-01T04:27:56.880Z,90685.91
2023-11-01T04:30:23.854Z,90692.09
2023-11-01T04:32:50.998Z,90679.56
2023-11-01T04:35:17.699Z,90683.97
2023-11-01T04:37:44.047Z,90672.16
2023-11-01T04:40:11.053Z,90667.84
2023-11-01T04:42:37.834Z,90671.22
2023-11-01T04:45:04.786Z,90674.16
2023-11-01T04:47:31.547Z,90664.38
2023-11-01T04:49:58.353Z,90660.75
2023-11-01T04:52:24.695Z,90659.63
2023-11-01T04:54:51.026Z,90643.25
2023-11-01T04:57:17.385Z,90647.53
2023-11-01T04:59:43.738Z,90650.59
2023-11-01T05:02:11.818Z,90641.56
2023-11-01T05:04:38.436Z,90641.56
2023-11-01T05:07:04.793Z,90638.59
2023-11-01T05:09:31.127Z,90643.44
2023-11-01T05:11:57.470Z,90638.97
2023-11-01T05:14:23.826Z,90637.75
2023-11-01T05:16:50.271Z,90639.13
2023-11-01T05:19:17.273Z,90636.94
2023-11-01T05:21:43.655Z,90642.88
2023-11-01T05:24:10.005Z,90636.41
2023-11-01T05:26:36.982Z,90631.38
2023-11-01T05:29:03.786Z,90630.22
2023-11-01T05:31:30.137Z,90628.09
2023-11-01T05:33:56.892Z,90616.59
2023-11-01T05:36:23.289Z,90616.91
2023-11-01T05:38:49.644Z,90606.97
2023-11-01T05:41:16.026Z,90604.84
2023-11-01T05:43:42.521Z,90613.94
2023-11-01T05:46:09.028Z,90613.59
2023-11-01T05:48:35.535Z,90608.94
2023-11-01T05:51:02.184Z,90600.88
2023-11-01T05:53:28.601Z,90602.28
2023-11-01T05:56:04.618Z,90605.03
2023-11-01T05:58:36.126Z,90604.75
2023-11-01T06:01:02.468Z,90607.75
2023-11-01T06:03:28.971Z,90597.13
2023-11-01T06:05:58.899Z,90600.28
2023-11-01T06:08:25.593Z,90602.75
2023-11-01T06:10:52.708Z,90597.44
2023-11-01T06:13:19.602Z,90599.16
2023-11-01T06:15:45.943Z,90600.19
2023-11-01T06:18:12.434Z,90602.81
2023-11-01T06:20:38.938Z,90603.75
2023-11-01T06:23:11.209Z,90597.28
2023-11-01T06:25:38.269Z,90599.63
2023-11-01T06:28:04.736Z,90603.97
2023-11-01T06:30:31.085Z,90598.53
2023-11-01T06:32:57.704Z,90599.41
2023-11-01T06:35:24.284Z,90597.16
2023-11-01T06:37:50.712Z,90604.63
2023-11-01T06:40:17.068Z,90590.81
2023-11-01T06:42:43.461Z,90593.69
2023-11-01T06:45:11.781Z,90591.13
2023-11-01T06:47:38.245Z,90596.22
2023-11-01T06:50:04.818Z,90596.75
2023-11-01T06:52:31.167Z,90600.47
2023-11-01T06:54:57.516Z,90596.19
2023-11-01T06:57:23.990Z,90593.31
2023-11-01T06:59:50.383Z,90595.28
2023-11-01T07:02:16.804Z,90597.13
2023-11-01T07:04:43.202Z,90585.53
2023-11-01T07:07:12.185Z,90584.00
2023-11-01T07:09:40.042Z,90587.56
2023-11-01T07:12:06.515Z,90584.38
2023-11-01T07:14:32.918Z,90583.19
2023-11-01T07:16:59.273Z,90583.47
2023-11-01T07:19:25.653Z,90584.19
2023-11-01T07:21:52.518Z,90598.13
2023-11-01T07:24:18.857Z,90595.75
2023-11-01T07:26:45.288Z,90598.06
2023-11-01T07:29:11.703Z,90599.97
2023-11-01T07:31:38.087Z,90606.94
2023-11-01T07:34:04.448Z,90600.63
2023-11-01T07:36:30.856Z,90598.28
2023-11-01T07:38:57.240Z,90602.44
2023-11-01T07:41:23.667Z,90595.81
2023-11-01T07:43:50.084Z,90581.47
2023-11-01T07:46:16.553Z,90599.97
2023-11-01T07:48:43.076Z,90587.50
2023-11-01T07:51:09.465Z,90583.88
2023-11-01T07:53:36.049Z,90582.38
2023-11-01T07:56:02.596Z,90578.06
2023-11-01T07:58:30.376Z,90583.22
2023-11-01T08:00:56.719Z,90576.66
2023-11-01T08:03:25.113Z,90578.19
2023-11-01T08:05:51.865Z,90578.75
2023-11-01T08:08:18.520Z,90568.00
2023-11-01T08:10:44.859Z,90568.44
2023-11-01T08:13:11.344Z,90569.03
2023-11-01T08:15:37.723Z,90557.44
2023-11-01T08:18:04.241Z,90559.56
2023-11-01T08:20:33.759Z,90558.00
2023-11-01T08:23:00.165Z,90563.13
2023-11-01T08:25:26.624Z,90554.06
2023-11-01T08:27:52.972Z,90557.28
2023-11-01T08:30:19.403Z,90554.63
2023-11-01T08:32:45.968Z,90555.34
2023-11-01T08:35:12.401Z,90550.47
2023-11-01T08:37:38.740Z,90552.84
2023-11-01T08:40:05.271Z,90560.50
2023-11-01T08:42:31.634Z,90551.94
2023-11-01T08:44:58.314Z,90547.38
2023-11-01T08:47:34.346Z,90550.84
2023-11-01T08:50:01.285Z,90539.47
2023-11-01T08:52:27.701Z,90542.97
2023-11-01T08:54:54.033Z,90547.81
2023-11-01T08:57:23.370Z,90531.41
2023-11-01T08:59:54.125Z,90534.19
2023-11-01T09:02:21.191Z,90527.03
2023-11-01T09:04:47.551Z,90514.53
2023-11-01T09:07:13.888Z,90514.09
2023-11-01T09:09:40.275Z,90526.88
2023-11-01T09:12:06.865Z,90521.38
2023-11-01T09:14:33.274Z,90515.03
2023-11-01T09:16:59.674Z,90517.94
2023-11-01T09:19:26.146Z,90530.03
2023-11-01T09:21:52.490Z,90520.59
2023-11-01T09:24:18.881Z,90526.25
2023-11-01T09:26:47.198Z,90537.84
2023-11-01T09:29:14.682Z,90531.63
2023-11-01T09:31:40.998Z,90522.97
2023-11-01T09:34:07.429Z,90521.81
2023-11-01T09:36:35.497Z,90521.66
2023-11-01T09:39:01.866Z,90522.03
2023-11-01T09:41:32.993Z,90528.34
2023-11-01T09:44:00.495Z,90526.81
2023-11-01T09:46:27.289Z,90526.41
2023-11-01T09:48:55.413Z,90525.25
2023-11-01T09:51:26.024Z,90527.75
2023-11-01T09:53:52.405Z,90535.97
2023-11-01T09:56:18.947Z,90527.09
2023-11-01T09:58:45.281Z,90533.25
2023-11-01T10:01:11.812Z,90526.66
2023-11-01T10:03:39.179Z,90536.84
2023-11-01T10:06:05.730Z,90527.75
2023-11-01T10:08:33.221Z,90529.66
2023-11-01T10:11:03.456Z,90521.06
2023-11-01T10:13:32.873Z,90515.03
2023-11-01T10:15:59.231Z,90502.47
2023-11-01T10:18:25.701Z,90495.81
2023-11-01T10:20:52.172Z,90492.47
2023-11-01T10:23:18.716Z,90471.66
2023-11-01T10:25:45.297Z,90464.91
2023-11-01T10:28:14.516Z,90448.44
2023-11-01T10:30:45.072Z,90444.50
2023-11-01T10:33:12.012Z,90456.66
2023-11-01T10:35:38.660Z,90457.31
2023-11-01T10:38:05.129Z,90452.41
2023-11-01T10:40:31.585Z,90457.56
2023-11-01T10:43:04.299Z,90453.47
2023-11-01T10:45:30.779Z,90444.22
2023-11-01T10:47:57.408Z,90435.19
2023-11-01T10:50:24.103Z,90418.97
2023-11-01T10:52:50.465Z,90414.06
2023-11-01T10:55:20.524Z,90421.53
2023-11-01T10:57:50.540Z,90419.78
2023-11-01T11:00:36.307Z,90424.63
2023-11-01T11:03:07.698Z,90405.25
2023-11-01T11:05:34.157Z,90409.59
2023-11-01T11:08:00.570Z,90399.50
2023-11-01T11:10:33.087Z,90392.31
2023-11-01T11:13:17.843Z,90377.63
2023-11-01T11:15:48.098Z,90374.94
2023-11-01T11:18:15.342Z,90367.22
2023-11-01T11:20:41.753Z,90374.84
2023-11-01T11:23:15.562Z,90361.16
2023-11-01T11:25:43.154Z,90352.38
2023-11-01T11:28:09.831Z,90357.34
2023-11-01T11:30:45.751Z,90347.13
2023-11-01T11:33:12.571Z,90351.44
2023-11-01T11:35:39.391Z,90344.84
2023-11-01T11:38:24.563Z,90344.31
2023-11-01T11:41:09.802Z,90340.59
2023-11-01T11:43:54.938Z,90340.72
2023-11-01T11:46:29.791Z,90348.31
2023-11-01T11:48:56.375Z,90344.53
2023-11-01T11:51:22.742Z,90324.00
2023-11-01T11:53:49.193Z,90311.88
2023-11-01T11:56:21.762Z,90319.16
2023-11-01T11:58:48.129Z,90316.34
2023-11-01T12:01:27.076Z,90309.72
2023-11-01T12:03:57.069Z,90310.78
2023-11-01T12:06:25.182Z,90317.66
2023-11-01T12:08:51.569Z,90311.72
2023-11-01T12:11:17.974Z,90314.69
2023-11-01T12:13:48.720Z,90318.59
2023-11-01T12:16:26.192Z,90327.13
2023-11-01T12:19:11.600Z,90319.56
2023-11-01T12:21:41.663Z,90318.06
2023-11-01T12:24:09.246Z,90315.00
2023-11-01T12:26:35.674Z,90310.97
2023-11-01T12:29:05.518Z,90309.63
2023-11-01T12:31:32.715Z,90299.44
2023-11-01T12:34:11.786Z,90306.56
2023-11-01T12:36:39.626Z,90307.72
2023-11-01T12:39:08.773Z,90301.56
2023-11-01T12:41:35.164Z,90303.16
2023-11-01T12:44:01.552Z,90293.47
2023-11-01T12:46:27.914Z,90297.88
2023-11-01T12:48:57.029Z,90297.16
2023-11-01T12:51:23.393Z,90289.38
2023-11-01T12:53:49.796Z,90286.34
2023-11-01T12:56:16.310Z,90289.16
2023-11-01T12:58:42.839Z,90289.13
2023-11-01T13:01:09.397Z,90284.72
2023-11-01T13:03:37.331Z,90276.94
2023-11-01T13:06:03.833Z,90276.56
2023-11-01T13:08:30.830Z,90277.06
2023-11-01T13:10:57.210Z,90288.81
2023-11-01T13:13:23.560Z,90285.84
2023-11-01T13:15:49.932Z,90283.31
2023-11-01T13:18:16.390Z,90279.78
2023-11-01T13:20:43.803Z,90282.78
2023-11-01T13:23:10.170Z,90275.53
2023-11-01T13:25:36.781Z,90275.75
2023-11-01T13:28:03.160Z,90268.50
2023-11-01T13:30:29.511Z,90277.69
2023-11-01T13:32:55.932Z,90268.56
2023-11-01T13:35:22.809Z,90264.56
2023-11-01T13:37:49.158Z,90264.56
2023-11-01T13:40:15.491Z,90261.53
2023-11-01T13:42:41.833Z,90264.72
2023-11-01T13:45:09.255Z,90260.38
2023-11-01T13:47:36.437Z,90262.06
2023-11-01T13:50:02.902Z,90263.94
2023-11-01T13:52:29.257Z,90258.00
2023-11-01T13:54:55.624Z,90255.56
2023-11-01T13:57:23.591Z,90252.91
2023-11-01T13:59:50.081Z,90240.19
2023-11-01T14:02:16.557Z,90244.22
2023-11-01T14:04:43.045Z,90243.31
2023-11-01T14:07:09.451Z,90244.34
2023-11-01T14:09:35.815Z,90245.66
2023-11-01T14:12:04.010Z,90250.41
2023-11-01T14:14:30.421Z,90241.88
2023-11-01T14:16:56.801Z,90248.38
2023-11-01T14:19:23.148Z,90244.41
2023-11-01T14:21:49.523Z,90246.69
2023-11-01T14:24:19.224Z,90248.25
2023-11-01T14:26:46.450Z,90243.53
2023-11-01T14:29:12.870Z,90251.13
2023-11-01T14:31:39.219Z,90251.50
2023-11-01T14:34:06.583Z,90260.88
2023-11-01T14:36:33.110Z,90263.84
2023-11-01T14:38:59.542Z,90264.63
2023-11-01T14:41:26.000Z,90267.88
2023-11-01T14:43:52.331Z,90271.34
2023-11-01T14:46:18.760Z,90268.69
2023-11-01T14:48:45.434Z,90269.50
2023-11-01T14:51:11.942Z,90278.38
2023-11-01T14:53:38.403Z,90296.00
2023-11-01T14:56:15.527Z,90293.66
2023-11-01T14:58:44.488Z,90311.69
2023-11-01T15:01:10.944Z,90300.16
2023-11-01T15:03:40.785Z,90302.91
2023-11-01T15:06:07.788Z,90307.44
2023-11-01T15:08:34.629Z,90314.00
2023-11-01T15:11:01.007Z,90321.63
2023-11-01T15:13:27.732Z,90324.09
2023-11-01T15:15:54.216Z,90318.69
2023-11-01T15:18:20.670Z,90310.78
2023-11-01T15:20:47.095Z,90303.81
2023-11-01T15:23:13.459Z,90309.63
2023-11-01T15:25:40.002Z,90320.78
2023-11-01T15:28:06.352Z,90324.03
2023-11-01T15:30:32.680Z,90315.31
2023-11-01T15:32:59.115Z,90315.94
2023-11-01T15:35:25.512Z,90323.63
2023-11-01T15:37:51.936Z,90324.19
2023-11-01T15:40:18.305Z,90323.63
2023-11-01T15:42:44.691Z,90318.41
2023-11-01T15:45:11.361Z,90316.59
2023-11-01T15:47:38.027Z,90322.03
2023-11-01T15:50:05.506Z,90321.06
2023-11-01T15:52:32.576Z,90325.66
2023-11-01T15:54:59.172Z,90327.56
2023-11-01T15:57:25.812Z,90325.84
2023-11-01T15:59:52.236Z,90321.41
2023-11-01T16:02:18.657Z,90327.56
2023-11-01T16:04:45.233Z,90338.84
2023-11-01T16:07:11.711Z,90340.28
2023-11-01T16:09:39.335Z,90330.00
2023-11-01T16:12:06.164Z,90315.44
2023-11-01T16:14:32.591Z,90324.09
2023-11-01T16:16:59.195Z,90326.44
2023-11-01T16:19:25.558Z,90317.13
2023-11-01T16:21:51.901Z,90304.13
2023-11-01T16:24:18.364Z,90296.66
2023-11-01T16:26:45.116Z,90299.75
2023-11-01T16:29:11.532Z,90294.00
2023-11-01T16:31:37.932Z,90301.00
2023-11-01T16:34:04.434Z,90306.22
2023-11-01T16:36:31.146Z,90306.84
2023-11-01T16:38:57.733Z,90308.97
2023-11-01T16:41:24.326Z,90312.41
2023-11-01T16:43:50.669Z,90319.88
2023-11-01T16:46:17.476Z,90327.09
2023-11-01T16:48:43.961Z,90349.97
2023-11-01T16:51:11.079Z,90350.66
2023-11-01T16:53:37.564Z,90349.75
2023-11-01T16:56:04.578Z,90362.03
2023-11-01T16:58:31.015Z,90391.06
2023-11-01T17:00:57.361Z,90388.38
2023-11-01T17:03:23.828Z,90390.59
2023-11-01T17:05:50.244Z,90411.00
2023-11-01T17:08:16.610Z,90396.63
2023-11-01T17:10:43.419Z,90390.63
2023-11-01T17:13:10.273Z,90400.91
2023-11-01T17:15:37.027Z,90421.69
2023-11-01T17:18:03.466Z,90417.25
2023-11-01T17:20:29.865Z,90415.94
2023-11-01T17:22:59.380Z,90433.88
2023-11-01T17:25:31.813Z,90446.56
2023-11-01T17:28:01.447Z,90449.50
2023-11-01T17:30:27.793Z,90464.03
2023-11-01T17:32:55.112Z,90465.97
2023-11-01T17:35:22.127Z,90469.97
2023-11-01T17:37:51.246Z,90485.31
2023-11-01T17:40:18.065Z,90482.00
2023-11-01T17:42:44.433Z,90464.28
2023-11-01T17:45:10.969Z,90472.03
2023-11-01T17:47:38.251Z,90464.63
2023-11-01T17:50:09.594Z,90455.75
2023-11-01T17:52:43.727Z,90435.94
2023-11-01T17:55:10.755Z,90442.69
2023-11-01T17:57:37.777Z,90440.06
2023-11-01T18:00:05.861Z,90436.88
2023-11-01T18:02:32.502Z,90433.44
2023-11-01T18:05:00.079Z,90424.72
2023-11-01T18:07:26.489Z,90421.91
2023-11-01T18:09:53.016Z,90420.13
2023-11-01T18:12:19.500Z,90407.44
2023-11-01T18:14:45.978Z,90412.09
2023-11-01T18:17:12.593Z,90411.72
2023-11-01T18:19:39.377Z,90412.91
2023-11-01T18:22:06.139Z,90415.69
2023-11-01T18:24:39.177Z,90411.72
2023-11-01T18:27:05.656Z,90405.97
2023-11-01T18:29:32.023Z,90393.41
2023-11-01T18:31:58.378Z,90385.44
2023-11-01T18:34:24.881Z,90374.94
2023-11-01T18:36:53.711Z,90366.97
2023-11-01T18:39:20.707Z,90366.22
2023-11-01T18:41:47.160Z,90361.44
2023-11-01T18:44:20.451Z,90353.69
2023-11-01T18:46:46.874Z,90356.69
2023-11-01T18:49:13.219Z,90362.81
2023-11-01T18:51:45.151Z,90358.50
2023-11-01T18:54:11.576Z,90358.41
2023-11-01T18:56:39.636Z,90357.53
2023-11-01T18:59:06.390Z,90359.03
2023-11-01T19:01:33.425Z,90346.00
2023-11-01T19:04:00.490Z,90341.47
2023-11-01T19:06:26.901Z,90336.38
2023-11-01T19:08:53.270Z,90331.72
2023-11-01T19:11:19.620Z,90334.28
2023-11-01T19:13:46.001Z,90331.72
2023-11-01T19:16:13.501Z,90337.16
2023-11-01T19:18:39.968Z,90327.38
2023-11-01T19:21:06.504Z,90333.28
2023-11-01T19:23:33.257Z,90324.88
2023-11-01T19:25:59.642Z,90320.38
2023-11-01T19:28:25.981Z,90321.19
2023-11-01T19:30:52.531Z,90316.66
2023-11-01T19:33:26.678Z,90312.22
2023-11-01T19:36:07.549Z,90310.63
2023-11-01T19:38:40.209Z,90324.97
2023-11-01T19:41:06.750Z,90328.97
2023-11-01T19:43:33.090Z,90332.81
2023-11-01T19:45:59.430Z,90316.84
2023-11-01T19:48:27.312Z,90322.59
2023-11-01T19:50:54.339Z,90323.03
2023-11-01T19:53:20.745Z,90327.09
2023-11-01T19:55:47.110Z,90325.00
2023-11-01T19:58:13.449Z,90322.22
2023-11-01T20:00:39.872Z,90315.28
2023-11-01T20:03:06.502Z,90301.00
2023-11-01T20:05:33.341Z,90291.19
2023-11-01T20:07:59.950Z,90299.22
2023-11-01T20:10:26.561Z,90307.38
2023-11-01T20:12:52.976Z,90296.44
2023-11-01T20:15:20.374Z,90303.56
2023-11-01T20:17:48.161Z,90296.66
2023-11-01T20:20:14.649Z,90281.75
2023-11-01T20:22:43.194Z,90288.25
2023-11-01T20:25:10.241Z,90291.53
2023-11-01T20:27:36.907Z,90284.19
2023-11-01T20:30:05.538Z,90276.72
2023-11-01T20:32:31.911Z,90280.91
2023-11-01T20:34:58.260Z,90275.75
2023-11-01T20:37:25.386Z,90269.69
2023-11-01T20:39:51.807Z,90280.78
2023-11-01T20:42:18.193Z,90280.19
2023-11-01T20:44:45.330Z,90272.25
2023-11-01T20:47:11.782Z,90277.53
2023-11-01T20:49:38.377Z,90272.97
2023-11-01T20:52:04.922Z,90272.09
2023-11-01T20:54:31.633Z,90273.41
2023-11-01T20:56:58.080Z,90266.84
2023-11-01T20:59:24.434Z,90272.84
2023-11-01T21:01:50.782Z,90270.28
2023-11-01T21:04:17.245Z,90259.84
2023-11-01T21:06:43.855Z,90261.38
2023-11-01T21:09:11.970Z,90251.31
2023-11-01T21:11:38.363Z,90244.16
2023-11-01T21:14:04.710Z,90241.84
2023-11-01T21:16:31.063Z,90229.09
2023-11-01T21:18:57.499Z,90235.53
2023-11-01T21:21:24.084Z,90220.84
2023-11-01T21:23:50.713Z,90220.72
2023-11-01T21:26:17.157Z,90217.41
2023-11-01T21:28:43.487Z,90213.97
2023-11-01T21:31:10.924Z,90214.38
2023-11-01T21:33:38.917Z,90201.38
2023-11-01T21:36:05.647Z,90201.25
2023-11-01T21:38:31.981Z,90197.50
2023-11-01T21:40:58.314Z,90196.38
2023-11-01T21:43:25.714Z,90189.69
2023-11-01T21:45:53.227Z,90182.75
2023-11-01T21:48:28.901Z,90174.19
2023-11-01T21:51:01.968Z,90161.41
2023-11-01T21:53:29.431Z,90151.94
2023-11-01T21:55:56.169Z,90150.41
2023-11-01T21:58:25.968Z,90145.91
2023-11-01T22:00:58.967Z,90136.03
2023-11-01T22:03:47.210Z,90134.91
2023-11-01T22:06:17.542Z,90124.56
2023-11-01T22:08:54.345Z,90115.75
2023-11-01T22:11:20.770Z,90107.84
2023-11-01T22:13:47.122Z,90106.63
2023-11-01T22:16:22.129Z,90106.13
2023-11-01T22:18:48.540Z,90103.66
2023-11-01T22:21:14.896Z,90111.13
2023-11-01T22:23:41.248Z,90107.91
2023-11-01T22:26:07.654Z,90110.59
2023-11-01T22:28:34.497Z,90093.78
2023-11-01T22:31:00.852Z,90086.19
2023-11-01T22:33:27.341Z,90085.94
2023-11-01T22:35:53.835Z,90080.44
2023-11-01T22:38:20.400Z,90069.97
2023-11-01T22:40:47.459Z,90056.63
2023-11-01T22:43:15.334Z,90051.75
2023-11-01T22:45:42.441Z,90043.56
2023-11-01T22:48:09.710Z,90049.81
2023-11-01T22:50:36.164Z,90045.91
2023-11-01T22:53:02.577Z,90047.03
2023-11-01T22:55:40.798Z,90050.81
2023-11-01T22:58:08.747Z,90053.84
2023-11-01T23:00:37.278Z,90052.06
2023-11-01T23:03:04.252Z,90048.25
2023-11-01T23:05:30.712Z,90028.59
2023-11-01T23:07:57.400Z,90031.69
2023-11-01T23:10:26.601Z,90045.63
2023-11-01T23:12:52.925Z,90044.00
2023-11-01T23:15:19.526Z,90034.59
2023-11-01T23:17:46.888Z,90039.03
2023-11-01T23:20:14.368Z,90026.03
2023-11-01T23:22:40.764Z,90030.91
2023-11-01T23:25:08.198Z,90026.31
2023-11-01T23:27:34.601Z,90022.00
2023-11-01T23:30:01.923Z,90021.75
2023-11-01T23:32:28.848Z,90007.28
2023-11-01T23:34:56.912Z,90011.13
2023-11-01T23:37:32.125Z,89998.59
2023-11-01T23:39:58.488Z,89986.06
2023-11-01T23:42:24.936Z,89978.69
2023-11-01T23:44:53.606Z,89970.28
2023-11-01T23:47:22.067Z,89986.44
2023-11-01T23:49:58.158Z,89978.97
2023-11-01T23:52:28.519Z,89964.59
2023-11-01T23:54:55.203Z,89964.03
2023-11-01T23:57:22.578Z,89960.69
2023-11-01T23:59:48.979Z,89967.84
